This is the latest recevied weather packets stored in our database for station/object R1CBW-13. If no packets are shown the sender has not sent any weather packets the latest 10 day(s).
| Time | Temp. | Humidity | Pressure | Rain* | Wind** | Luminosity | Snow |
|---|---|---|---|---|---|---|---|
| 1778360621 | 6.67° C | 59% | 1024.5 hPa | 0 mm | - | - | - |
| 1778360561 | 6.67° C | 60% | 1024.5 hPa | 0 mm | - | - | - |
| 1778360501 | 7.22° C | 57% | 1024.5 hPa | 0 mm | - | - | - |
| 1778360441 | 7.22° C | 57% | 1024.4 hPa | 0 mm | - | - | - |
| 1778360381 | 6.67° C | 59% | 1024.5 hPa | 0 mm | - | - | - |
| 1778360321 | 6.67° C | 59% | 1024.5 hPa | 0 mm | - | - | - |
| 1778360261 | 6.67° C | 58% | 1024.5 hPa | 0 mm | - | - | - |
| 1778360200 | 6.11° C | 60% | 1024.4 hPa | 0 mm | - | - | - |
| 1778360140 | 6.67° C | 59% | 1024.5 hPa | 0 mm | - | - | - |
| 1778360080 | 6.67° C | 57% | 1024.5 hPa | 0 mm | - | - | - |
| 1778360020 | 7.22° C | 56% | 1024.4 hPa | 0 mm | - | - | - |
| 1778359960 | 6.67° C | 58% | 1024.5 hPa | 0 mm | - | - | - |
| 1778359900 | 7.22° C | 57% | 1024.6 hPa | 0 mm | - | - | - |
| 1778359840 | 7.22° C | 57% | 1024.5 hPa | 0 mm | - | - | - |
| 1778359780 | 7.22° C | 57% | 1024.5 hPa | 0 mm | - | - | - |
| 1778359720 | 6.67° C | 58% | 1024.5 hPa | 0 mm | - | - | - |
| 1778359660 | 7.78° C | 55% | 1024.4 hPa | 0 mm | - | - | - |
| 1778359600 | 7.78° C | 55% | 1024.5 hPa | 0 mm | - | - | - |
| 1778359540 | 7.22° C | 57% | 1024.5 hPa | 0 mm | - | - | - |
| 1778359480 | 6.67° C | 58% | 1024.4 hPa | 0 mm | - | - | - |
| 1778359420 | 7.22° C | 57% | 1024.5 hPa | 0 mm | - | - | - |
| 1778359360 | 6.67° C | 57% | 1024.4 hPa | 0 mm | - | - | - |
| 1778359300 | 6.67° C | 57% | 1024.5 hPa | 0 mm | - | - | - |
| 1778359240 | 7.22° C | 56% | 1024.5 hPa | 0 mm | - | - | - |
| 1778359180 | 6.67° C | 57% | 1024.5 hPa | 0 mm | - | - | - |
* Rain latest hour (hover to see other rain measurements)
** Current wind speed in m/s (hover to see current wind gust speed)